Rolling Meadows, Illinois
Current Conditions -  °F | °C
As of 6:52 PM on Friday 19 Dec 2014 (Local Time) from KPWK Reporting Station
Overcast Overcast  
Wind Chill: -4°   Ceiling: 2600
Heat Index: -1°   Visibility: 10mi
Dew Point: -6°   Wind: 6mph
Humidity: 69%   Direction: 340°NNW
Pressure: 30.3"   Gusts: NA
Location:  42.08°N, 88.03°W
Report Text: KPWK 200052Z 34005KT 10SM OVC026 M01/M06 A3030 RMK AO2 SLP267 T10111061
Loading
Personal Weather Stations






























Interactive Weather Map New forecast layout! Learn more

10-Day Weather Forecast

Advertisements
Track Severe Weather on mobile